sensor_id;sensor_type;location;lat;lon;timestamp;temperature;humidity
11087;DHT22;5597;47.588;9.642;2023-11-21T00:02:22;9.00;99.90
11087;DHT22;5597;47.588;9.642;2023-11-21T00:04:51;8.90;99.90
11087;DHT22;5597;47.588;9.642;2023-11-21T00:07:17;8.90;99.90
11087;DHT22;5597;47.588;9.642;2023-11-21T00:09:43;8.90;99.90
11087;DHT22;5597;47.588;9.642;2023-11-21T00:12:08;8.90;99.90
11087;DHT22;5597;47.588;9.642;2023-11-21T00:14:39;8.90;99.90
11087;DHT22;5597;47.588;9.642;2023-11-21T00:17:05;9.00;99.90
11087;DHT22;5597;47.588;9.642;2023-11-21T00:19:32;9.00;99.90
11087;DHT22;5597;47.588;9.642;2023-11-21T00:21:58;9.00;99.90
11087;DHT22;5597;47.588;9.642;2023-11-21T00:24:24;9.00;99.90
11087;DHT22;5597;47.588;9.642;2023-11-21T00:26:50;9.00;99.90
11087;DHT22;5597;47.588;9.642;2023-11-21T00:29:16;9.10;99.90
11087;DHT22;5597;47.588;9.642;2023-11-21T00:31:44;9.00;99.90
11087;DHT22;5597;47.588;9.642;2023-11-21T00:34:11;9.00;99.90
11087;DHT22;5597;47.588;9.642;2023-11-21T00:36:37;9.00;99.90
11087;DHT22;5597;47.588;9.642;2023-11-21T00:39:03;9.00;99.90
11087;DHT22;5597;47.588;9.642;2023-11-21T00:41:31;9.00;99.90
11087;DHT22;5597;47.588;9.642;2023-11-21T00:43:57;8.90;99.90
11087;DHT22;5597;47.588;9.642;2023-11-21T00:46:22;8.90;99.90
11087;DHT22;5597;47.588;9.642;2023-11-21T00:48:49;8.90;99.90
11087;DHT22;5597;47.588;9.642;2023-11-21T00:51:15;8.80;99.90
11087;DHT22;5597;47.588;9.642;2023-11-21T00:53:40;8.80;99.90
11087;DHT22;5597;47.588;9.642;2023-11-21T00:56:06;8.70;99.90
11087;DHT22;5597;47.588;9.642;2023-11-21T00:58:34;8.70;99.90
11087;DHT22;5597;47.588;9.642;2023-11-21T01:00:59;8.70;99.90
11087;DHT22;5597;47.588;9.642;2023-11-21T01:03:25;8.70;99.90
11087;DHT22;5597;47.588;9.642;2023-11-21T01:05:50;8.60;99.90
11087;DHT22;5597;47.588;9.642;2023-11-21T01:08:16;8.60;99.90
11087;DHT22;5597;47.588;9.642;2023-11-21T01:10:41;8.60;99.90
11087;DHT22;5597;47.588;9.642;2023-11-21T01:13:07;8.50;99.90
11087;DHT22;5597;47.588;9.642;2023-11-21T01:15:33;8.50;99.90
11087;DHT22;5597;47.588;9.642;2023-11-21T01:17:59;8.50;99.90
11087;DHT22;5597;47.588;9.642;2023-11-21T01:20:25;8.40;99.90
11087;DHT22;5597;47.588;9.642;2023-11-21T01:22:51;8.40;99.90
11087;DHT22;5597;47.588;9.642;2023-11-21T01:58:48;8.00;99.90
11087;DHT22;5597;47.588;9.642;2023-11-21T02:01:14;7.90;99.90
11087;DHT22;5597;47.588;9.642;2023-11-21T02:03:39;7.90;99.90
11087;DHT22;5597;47.588;9.642;2023-11-21T02:06:05;7.90;99.90
11087;DHT22;5597;47.588;9.642;2023-11-21T02:08:31;7.90;99.90
11087;DHT22;5597;47.588;9.642;2023-11-21T02:10:56;7.90;99.90
11087;DHT22;5597;47.588;9.642;2023-11-21T02:13:23;8.00;99.90
11087;DHT22;5597;47.588;9.642;2023-11-21T02:15:48;8.00;99.90
11087;DHT22;5597;47.588;9.642;2023-11-21T02:18:17;8.00;99.90
11087;DHT22;5597;47.588;9.642;2023-11-21T02:20:43;8.00;99.90
11087;DHT22;5597;47.588;9.642;2023-11-21T02:23:08;8.00;99.90
11087;DHT22;5597;47.588;9.642;2023-11-21T02:25:34;8.00;99.90
11087;DHT22;5597;47.588;9.642;2023-11-21T02:28:03;8.00;99.90
11087;DHT22;5597;47.588;9.642;2023-11-21T02:30:29;8.00;99.90
11087;DHT22;5597;47.588;9.642;2023-11-21T02:32:56;8.00;99.90
11087;DHT22;5597;47.588;9.642;2023-11-21T02:35:24;8.00;99.90
11087;DHT22;5597;47.588;9.642;2023-11-21T02:37:51;8.00;99.90
11087;DHT22;5597;47.588;9.642;2023-11-21T02:40:17;8.00;99.90
11087;DHT22;5597;47.588;9.642;2023-11-21T02:42:44;8.00;99.90
11087;DHT22;5597;47.588;9.642;2023-11-21T02:45:10;7.90;99.90
11087;DHT22;5597;47.588;9.642;2023-11-21T02:47:39;8.00;99.90
11087;DHT22;5597;47.588;9.642;2023-11-21T02:50:05;8.00;99.90
11087;DHT22;5597;47.588;9.642;2023-11-21T02:52:33;8.00;99.90
11087;DHT22;5597;47.588;9.642;2023-11-21T02:54:59;7.90;99.90
11087;DHT22;5597;47.588;9.642;2023-11-21T02:57:24;7.90;99.90
11087;DHT22;5597;47.588;9.642;2023-11-21T02:59:50;7.90;99.90
11087;DHT22;5597;47.588;9.642;2023-11-21T03:02:15;7.80;99.90
11087;DHT22;5597;47.588;9.642;2023-11-21T03:04:41;7.80;99.90
11087;DHT22;5597;47.588;9.642;2023-11-21T03:07:08;7.80;99.90
11087;DHT22;5597;47.588;9.642;2023-11-21T03:09:35;7.80;99.90
11087;DHT22;5597;47.588;9.642;2023-11-21T03:12:00;7.80;99.90
11087;DHT22;5597;47.588;9.642;2023-11-21T03:14:26;7.80;99.90
11087;DHT22;5597;47.588;9.642;2023-11-21T03:16:51;7.80;99.90
11087;DHT22;5597;47.588;9.642;2023-11-21T03:19:17;7.70;99.90
11087;DHT22;5597;47.588;9.642;2023-11-21T03:21:43;7.70;99.90
11087;DHT22;5597;47.588;9.642;2023-11-21T03:24:08;7.70;99.90
11087;DHT22;5597;47.588;9.642;2023-11-21T03:26:34;7.60;99.90
11087;DHT22;5597;47.588;9.642;2023-11-21T03:28:59;7.60;99.90
11087;DHT22;5597;47.588;9.642;2023-11-21T03:31:25;7.60;99.90
11087;DHT22;5597;47.588;9.642;2023-11-21T03:33:52;7.60;99.90
11087;DHT22;5597;47.588;9.642;2023-11-21T03:36:19;7.60;99.90
11087;DHT22;5597;47.588;9.642;2023-11-21T03:38:44;7.60;99.90
11087;DHT22;5597;47.588;9.642;2023-11-21T03:41:10;7.60;99.90
11087;DHT22;5597;47.588;9.642;2023-11-21T03:43:39;7.60;99.90
11087;DHT22;5597;47.588;9.642;2023-11-21T03:46:04;7.50;99.90
11087;DHT22;5597;47.588;9.642;2023-11-21T03:48:30;7.50;99.90
11087;DHT22;5597;47.588;9.642;2023-11-21T03:50:55;7.50;99.90
11087;DHT22;5597;47.588;9.642;2023-11-21T03:53:21;7.50;99.90
11087;DHT22;5597;47.588;9.642;2023-11-21T03:55:47;7.50;99.90
11087;DHT22;5597;47.588;9.642;2023-11-21T03:58:12;7.50;99.90
11087;DHT22;5597;47.588;9.642;2023-11-21T04:00:38;7.50;99.90
11087;DHT22;5597;47.588;9.642;2023-11-21T04:03:04;7.50;99.90
11087;DHT22;5597;47.588;9.642;2023-11-21T04:05:30;7.50;99.90
11087;DHT22;5597;47.588;9.642;2023-11-21T04:07:56;7.50;99.90
11087;DHT22;5597;47.588;9.642;2023-11-21T04:10:22;7.50;99.90
11087;DHT22;5597;47.588;9.642;2023-11-21T04:12:47;7.50;99.90
11087;DHT22;5597;47.588;9.642;2023-11-21T04:15:14;7.50;99.90
11087;DHT22;5597;47.588;9.642;2023-11-21T04:17:40;7.40;99.90
11087;DHT22;5597;47.588;9.642;2023-11-21T04:20:07;7.40;99.90
11087;DHT22;5597;47.588;9.642;2023-11-21T04:22:40;7.40;99.90
11087;DHT22;5597;47.588;9.642;2023-11-21T04:25:08;7.40;99.90
11087;DHT22;5597;47.588;9.642;2023-11-21T04:27:34;7.30;99.90
11087;DHT22;5597;47.588;9.642;2023-11-21T04:30:00;7.30;99.90
11087;DHT22;5597;47.588;9.642;2023-11-21T04:32:25;7.30;99.90
11087;DHT22;5597;47.588;9.642;2023-11-21T04:34:51;7.30;99.90
11087;DHT22;5597;47.588;9.642;2023-11-21T04:37:17;7.30;99.90
11087;DHT22;5597;47.588;9.642;2023-11-21T04:39:42;7.30;99.90
11087;DHT22;5597;47.588;9.642;2023-11-21T04:42:08;7.30;99.90
11087;DHT22;5597;47.588;9.642;2023-11-21T04:44:33;7.30;99.90
11087;DHT22;5597;47.588;9.642;2023-11-21T04:46:59;7.30;99.90
11087;DHT22;5597;47.588;9.642;2023-11-21T04:49:24;7.30;99.90
11087;DHT22;5597;47.588;9.642;2023-11-21T04:51:50;7.30;99.90
11087;DHT22;5597;47.588;9.642;2023-11-21T04:54:15;7.30;99.90
11087;DHT22;5597;47.588;9.642;2023-11-21T04:56:41;7.30;99.90
11087;DHT22;5597;47.588;9.642;2023-11-21T04:59:07;7.30;99.90
11087;DHT22;5597;47.588;9.642;2023-11-21T05:01:33;7.30;99.90
11087;DHT22;5597;47.588;9.642;2023-11-21T05:03:59;7.30;99.90
11087;DHT22;5597;47.588;9.642;2023-11-21T05:06:24;7.30;99.90
11087;DHT22;5597;47.588;9.642;2023-11-21T05:08:50;7.20;99.90
11087;DHT22;5597;47.588;9.642;2023-11-21T05:11:28;7.20;99.90
11087;DHT22;5597;47.588;9.642;2023-11-21T05:13:54;7.20;99.90
11087;DHT22;5597;47.588;9.642;2023-11-21T05:16:21;7.20;99.90
11087;DHT22;5597;47.588;9.642;2023-11-21T05:18:47;7.20;99.90
11087;DHT22;5597;47.588;9.642;2023-11-21T05:21:13;7.20;99.90
11087;DHT22;5597;47.588;9.642;2023-11-21T05:23:39;7.20;99.90
11087;DHT22;5597;47.588;9.642;2023-11-21T05:26:05;7.20;99.90
11087;DHT22;5597;47.588;9.642;2023-11-21T05:28:30;7.20;99.90
11087;DHT22;5597;47.588;9.642;2023-11-21T05:30:56;7.20;99.90
11087;DHT22;5597;47.588;9.642;2023-11-21T05:33:22;7.20;99.90
11087;DHT22;5597;47.588;9.642;2023-11-21T05:35:47;7.20;99.90
11087;DHT22;5597;47.588;9.642;2023-11-21T05:38:15;7.20;99.90
11087;DHT22;5597;47.588;9.642;2023-11-21T05:40:41;7.30;99.90
11087;DHT22;5597;47.588;9.642;2023-11-21T05:43:07;7.30;99.90
11087;DHT22;5597;47.588;9.642;2023-11-21T05:45:32;7.30;99.90
11087;DHT22;5597;47.588;9.642;2023-11-21T05:47:58;7.30;99.90
11087;DHT22;5597;47.588;9.642;2023-11-21T05:50:24;7.30;99.90
11087;DHT22;5597;47.588;9.642;2023-11-21T05:52:50;7.30;99.90
11087;DHT22;5597;47.588;9.642;2023-11-21T05:55:16;7.30;99.90
11087;DHT22;5597;47.588;9.642;2023-11-21T05:57:43;7.30;99.90
11087;DHT22;5597;47.588;9.642;2023-11-21T06:00:11;7.30;99.90
11087;DHT22;5597;47.588;9.642;2023-11-21T06:02:40;7.20;99.90
11087;DHT22;5597;47.588;9.642;2023-11-21T06:05:07;7.20;99.90
11087;DHT22;5597;47.588;9.642;2023-11-21T06:07:33;7.20;99.90
11087;DHT22;5597;47.588;9.642;2023-11-21T06:09:59;7.20;99.90
11087;DHT22;5597;47.588;9.642;2023-11-21T06:12:24;7.20;99.90
11087;DHT22;5597;47.588;9.642;2023-11-21T06:14:50;7.20;99.90
11087;DHT22;5597;47.588;9.642;2023-11-21T06:17:16;7.20;99.90
11087;DHT22;5597;47.588;9.642;2023-11-21T06:19:43;7.20;99.90
11087;DHT22;5597;47.588;9.642;2023-11-21T06:22:11;7.20;99.90
11087;DHT22;5597;47.588;9.642;2023-11-21T06:24:36;7.20;99.90
11087;DHT22;5597;47.588;9.642;2023-11-21T06:27:04;7.20;99.90
11087;DHT22;5597;47.588;9.642;2023-11-21T06:29:30;7.20;99.90
11087;DHT22;5597;47.588;9.642;2023-11-21T06:31:56;7.20;99.90
11087;DHT22;5597;47.588;9.642;2023-11-21T06:34:21;7.20;99.90
11087;DHT22;5597;47.588;9.642;2023-11-21T06:36:47;7.20;99.90
11087;DHT22;5597;47.588;9.642;2023-11-21T06:39:12;7.20;99.90
11087;DHT22;5597;47.588;9.642;2023-11-21T06:41:40;7.20;99.90
11087;DHT22;5597;47.588;9.642;2023-11-21T06:44:06;7.20;99.90
11087;DHT22;5597;47.588;9.642;2023-11-21T06:46:31;7.20;99.90
11087;DHT22;5597;47.588;9.642;2023-11-21T06:48:57;7.20;99.90
11087;DHT22;5597;47.588;9.642;2023-11-21T06:51:22;7.20;99.90
11087;DHT22;5597;47.588;9.642;2023-11-21T06:53:48;7.20;99.90
11087;DHT22;5597;47.588;9.642;2023-11-21T06:56:19;7.20;99.90
11087;DHT22;5597;47.588;9.642;2023-11-21T06:58:46;7.20;99.90
11087;DHT22;5597;47.588;9.642;2023-11-21T07:01:12;7.20;99.90
11087;DHT22;5597;47.588;9.642;2023-11-21T07:03:39;7.30;99.90
11087;DHT22;5597;47.588;9.642;2023-11-21T07:06:05;7.30;99.90
11087;DHT22;5597;47.588;9.642;2023-11-21T07:08:31;7.30;99.90
11087;DHT22;5597;47.588;9.642;2023-11-21T07:10:56;7.20;99.90
11087;DHT22;5597;47.588;9.642;2023-11-21T07:13:22;7.30;99.90
11087;DHT22;5597;47.588;9.642;2023-11-21T07:15:49;7.30;99.90
11087;DHT22;5597;47.588;9.642;2023-11-21T07:18:14;7.30;99.90
11087;DHT22;5597;47.588;9.642;2023-11-21T07:20:40;7.30;99.90
11087;DHT22;5597;47.588;9.642;2023-11-21T07:23:05;7.30;99.90
11087;DHT22;5597;47.588;9.642;2023-11-21T07:25:32;7.30;99.90
11087;DHT22;5597;47.588;9.642;2023-11-21T07:27:59;7.40;99.90
11087;DHT22;5597;47.588;9.642;2023-11-21T07:30:26;7.40;99.90
11087;DHT22;5597;47.588;9.642;2023-11-21T07:32:52;7.40;99.90
11087;DHT22;5597;47.588;9.642;2023-11-21T07:35:17;7.40;99.90
11087;DHT22;5597;47.588;9.642;2023-11-21T07:37:43;7.40;99.90
11087;DHT22;5597;47.588;9.642;2023-11-21T07:40:09;7.40;99.90
11087;DHT22;5597;47.588;9.642;2023-11-21T07:42:37;7.40;99.90
11087;DHT22;5597;47.588;9.642;2023-11-21T07:45:04;7.40;99.90
11087;DHT22;5597;47.588;9.642;2023-11-21T07:47:29;7.40;99.90
11087;DHT22;5597;47.588;9.642;2023-11-21T07:49:55;7.40;99.90
11087;DHT22;5597;47.588;9.642;2023-11-21T07:52:23;7.50;99.90
11087;DHT22;5597;47.588;9.642;2023-11-21T07:54:49;7.50;99.90
11087;DHT22;5597;47.588;9.642;2023-11-21T07:57:15;7.50;99.90
11087;DHT22;5597;47.588;9.642;2023-11-21T07:59:40;7.60;99.90
11087;DHT22;5597;47.588;9.642;2023-11-21T08:02:07;7.50;99.90
11087;DHT22;5597;47.588;9.642;2023-11-21T08:04:32;7.50;99.90
11087;DHT22;5597;47.588;9.642;2023-11-21T08:06:58;7.60;99.90
11087;DHT22;5597;47.588;9.642;2023-11-21T08:09:24;7.60;99.90
11087;DHT22;5597;47.588;9.642;2023-11-21T08:11:49;7.60;99.90
11087;DHT22;5597;47.588;9.642;2023-11-21T08:14:16;7.60;99.90
11087;DHT22;5597;47.588;9.642;2023-11-21T08:16:42;7.60;99.90
11087;DHT22;5597;47.588;9.642;2023-11-21T08:19:07;7.60;99.90
11087;DHT22;5597;47.588;9.642;2023-11-21T08:21:34;7.60;99.90
11087;DHT22;5597;47.588;9.642;2023-11-21T08:24:02;7.60;99.90
11087;DHT22;5597;47.588;9.642;2023-11-21T08:26:29;7.60;99.90
11087;DHT22;5597;47.588;9.642;2023-11-21T08:28:55;7.70;99.90
11087;DHT22;5597;47.588;9.642;2023-11-21T08:31:25;7.70;99.90
11087;DHT22;5597;47.588;9.642;2023-11-21T08:33:51;7.70;99.90
11087;DHT22;5597;47.588;9.642;2023-11-21T08:36:21;7.60;99.90
11087;DHT22;5597;47.588;9.642;2023-11-21T08:38:49;7.70;99.90
11087;DHT22;5597;47.588;9.642;2023-11-21T08:41:15;7.70;99.90
11087;DHT22;5597;47.588;9.642;2023-11-21T08:43:41;7.80;99.90
11087;DHT22;5597;47.588;9.642;2023-11-21T08:46:07;7.80;99.90
11087;DHT22;5597;47.588;9.642;2023-11-21T08:48:36;7.80;99.90
11087;DHT22;5597;47.588;9.642;2023-11-21T08:51:03;7.80;99.90
11087;DHT22;5597;47.588;9.642;2023-11-21T08:53:29;7.80;99.90
11087;DHT22;5597;47.588;9.642;2023-11-21T08:55:56;7.80;99.90
11087;DHT22;5597;47.588;9.642;2023-11-21T08:58:22;7.80;99.90
11087;DHT22;5597;47.588;9.642;2023-11-21T09:00:47;7.80;99.90
11087;DHT22;5597;47.588;9.642;2023-11-21T09:03:14;7.90;99.90
11087;DHT22;5597;47.588;9.642;2023-11-21T09:05:40;7.90;99.90
11087;DHT22;5597;47.588;9.642;2023-11-21T09:08:06;7.90;99.90
11087;DHT22;5597;47.588;9.642;2023-11-21T09:10:33;7.90;99.90
11087;DHT22;5597;47.588;9.642;2023-11-21T09:13:01;7.90;99.90
11087;DHT22;5597;47.588;9.642;2023-11-21T09:15:27;7.90;99.90
11087;DHT22;5597;47.588;9.642;2023-11-21T09:17:53;7.90;99.90
11087;DHT22;5597;47.588;9.642;2023-11-21T09:20:18;7.90;99.90
11087;DHT22;5597;47.588;9.642;2023-11-21T09:22:47;7.90;99.90
11087;DHT22;5597;47.588;9.642;2023-11-21T09:25:12;7.90;99.90
11087;DHT22;5597;47.588;9.642;2023-11-21T09:27:38;8.00;99.90
11087;DHT22;5597;47.588;9.642;2023-11-21T09:30:04;8.00;99.90
11087;DHT22;5597;47.588;9.642;2023-11-21T09:32:31;8.00;99.90
11087;DHT22;5597;47.588;9.642;2023-11-21T09:34:56;8.00;99.90
11087;DHT22;5597;47.588;9.642;2023-11-21T09:37:23;8.00;99.90
11087;DHT22;5597;47.588;9.642;2023-11-21T09:39:50;8.10;99.90
11087;DHT22;5597;47.588;9.642;2023-11-21T09:42:38;8.10;99.90
11087;DHT22;5597;47.588;9.642;2023-11-21T09:45:27;8.10;99.90
11087;DHT22;5597;47.588;9.642;2023-11-21T09:47:54;8.10;99.90
11087;DHT22;5597;47.588;9.642;2023-11-21T09:50:21;8.10;99.90
11087;DHT22;5597;47.588;9.642;2023-11-21T09:55:34;8.20;99.90
11087;DHT22;5597;47.588;9.642;2023-11-21T09:58:05;8.20;99.90
11087;DHT22;5597;47.588;9.642;2023-11-21T10:00:33;8.30;99.90
11087;DHT22;5597;47.588;9.642;2023-11-21T10:02:59;8.30;99.90
11087;DHT22;5597;47.588;9.642;2023-11-21T10:05:25;8.40;99.90
11087;DHT22;5597;47.588;9.642;2023-11-21T10:07:51;8.40;99.90
11087;DHT22;5597;47.588;9.642;2023-11-21T10:10:21;8.50;99.90
11087;DHT22;5597;47.588;9.642;2023-11-21T10:12:50;8.60;99.90
11087;DHT22;5597;47.588;9.642;2023-11-21T10:15:21;8.60;99.90
11087;DHT22;5597;47.588;9.642;2023-11-21T10:17:49;8.60;99.90
11087;DHT22;5597;47.588;9.642;2023-11-21T10:20:15;8.60;99.90
11087;DHT22;5597;47.588;9.642;2023-11-21T10:22:42;8.60;99.90
11087;DHT22;5597;47.588;9.642;2023-11-21T10:25:10;8.70;99.90
11087;DHT22;5597;47.588;9.642;2023-11-21T10:27:39;8.70;99.90
11087;DHT22;5597;47.588;9.642;2023-11-21T10:30:09;8.70;99.90
11087;DHT22;5597;47.588;9.642;2023-11-21T10:32:38;8.70;99.90
11087;DHT22;5597;47.588;9.642;2023-11-21T10:35:03;8.70;99.90
11087;DHT22;5597;47.588;9.642;2023-11-21T10:37:36;8.70;99.90
11087;DHT22;5597;47.588;9.642;2023-11-21T10:40:08;8.70;99.90
11087;DHT22;5597;47.588;9.642;2023-11-21T10:42:40;8.80;99.90
11087;DHT22;5597;47.588;9.642;2023-11-21T10:45:06;8.80;99.90
11087;DHT22;5597;47.588;9.642;2023-11-21T10:47:40;8.90;99.90
11087;DHT22;5597;47.588;9.642;2023-11-21T10:50:07;8.90;99.90
11087;DHT22;5597;47.588;9.642;2023-11-21T10:52:42;8.90;99.90
11087;DHT22;5597;47.588;9.642;2023-11-21T10:55:18;8.90;99.90
11087;DHT22;5597;47.588;9.642;2023-11-21T10:57:48;8.80;99.90
11087;DHT22;5597;47.588;9.642;2023-11-21T11:00:16;8.80;99.90
11087;DHT22;5597;47.588;9.642;2023-11-21T11:02:45;8.80;99.90
11087;DHT22;5597;47.588;9.642;2023-11-21T11:05:14;8.90;99.90
11087;DHT22;5597;47.588;9.642;2023-11-21T11:07:42;8.90;99.90
11087;DHT22;5597;47.588;9.642;2023-11-21T11:10:09;8.90;99.90
11087;DHT22;5597;47.588;9.642;2023-11-21T11:12:40;9.00;99.90
11087;DHT22;5597;47.588;9.642;2023-11-21T11:15:07;9.00;99.90
11087;DHT22;5597;47.588;9.642;2023-11-21T11:17:36;9.10;99.90
11087;DHT22;5597;47.588;9.642;2023-11-21T11:20:04;9.10;99.90
11087;DHT22;5597;47.588;9.642;2023-11-21T11:22:40;9.10;99.90
11087;DHT22;5597;47.588;9.642;2023-11-21T11:28:17;9.10;99.90
11087;DHT22;5597;47.588;9.642;2023-11-21T11:34:08;9.00;99.90
11087;DHT22;5597;47.588;9.642;2023-11-21T11:36:49;9.00;99.90
11087;DHT22;5597;47.588;9.642;2023-11-21T11:39:40;9.10;99.90
11087;DHT22;5597;47.588;9.642;2023-11-21T11:42:13;9.10;99.90
11087;DHT22;5597;47.588;9.642;2023-11-21T11:47:32;9.00;99.90
11087;DHT22;5597;47.588;9.642;2023-11-21T11:52:52;8.90;99.90
11087;DHT22;5597;47.588;9.642;2023-11-21T11:55:21;8.90;99.90
11087;DHT22;5597;47.588;9.642;2023-11-21T11:57:48;8.90;99.90
11087;DHT22;5597;47.588;9.642;2023-11-21T12:02:48;8.90;99.90
11087;DHT22;5597;47.588;9.642;2023-11-21T12:05:16;8.90;99.90
11087;DHT22;5597;47.588;9.642;2023-11-21T12:07:52;8.90;99.90
11087;DHT22;5597;47.588;9.642;2023-11-21T12:10:20;9.00;99.90
11087;DHT22;5597;47.588;9.642;2023-11-21T12:12:52;9.00;99.90
11087;DHT22;5597;47.588;9.642;2023-11-21T12:15:18;9.10;99.90
11087;DHT22;5597;47.588;9.642;2023-11-21T12:17:45;9.20;99.90
11087;DHT22;5597;47.588;9.642;2023-11-21T12:20:15;9.20;99.90
11087;DHT22;5597;47.588;9.642;2023-11-21T12:22:46;9.30;99.90
11087;DHT22;5597;47.588;9.642;2023-11-21T12:27:51;9.40;99.90
11087;DHT22;5597;47.588;9.642;2023-11-21T12:30:19;9.40;99.90
11087;DHT22;5597;47.588;9.642;2023-11-21T12:32:48;9.40;99.90
11087;DHT22;5597;47.588;9.642;2023-11-21T12:35:14;9.40;99.90
11087;DHT22;5597;47.588;9.642;2023-11-21T12:37:41;9.40;99.90
11087;DHT22;5597;47.588;9.642;2023-11-21T12:40:09;9.50;99.90
11087;DHT22;5597;47.588;9.642;2023-11-21T12:42:41;9.70;99.90
11087;DHT22;5597;47.588;9.642;2023-11-21T12:47:44;10.00;99.90
11087;DHT22;5597;47.588;9.642;2023-11-21T12:50:13;10.20;99.90
11087;DHT22;5597;47.588;9.642;2023-11-21T12:52:45;10.40;99.90
11087;DHT22;5597;47.588;9.642;2023-11-21T12:55:18;10.50;99.90
11087;DHT22;5597;47.588;9.642;2023-11-21T12:57:48;10.70;99.90
11087;DHT22;5597;47.588;9.642;2023-11-21T13:00:16;10.90;99.90
11087;DHT22;5597;47.588;9.642;2023-11-21T13:02:53;11.10;99.90
11087;DHT22;5597;47.588;9.642;2023-11-21T13:05:32;11.30;99.90
11087;DHT22;5597;47.588;9.642;2023-11-21T13:08:01;11.50;99.90
11087;DHT22;5597;47.588;9.642;2023-11-21T13:10:29;11.70;99.90
11087;DHT22;5597;47.588;9.642;2023-11-21T13:12:57;11.80;99.90
11087;DHT22;5597;47.588;9.642;2023-11-21T13:15:24;11.90;99.90
11087;DHT22;5597;47.588;9.642;2023-11-21T13:17:50;12.00;99.90
11087;DHT22;5597;47.588;9.642;2023-11-21T13:20:17;12.10;99.90
11087;DHT22;5597;47.588;9.642;2023-11-21T13:22:49;12.20;99.90
11087;DHT22;5597;47.588;9.642;2023-11-21T13:25:16;12.30;99.90
11087;DHT22;5597;47.588;9.642;2023-11-21T13:27:45;12.40;99.90
11087;DHT22;5597;47.588;9.642;2023-11-21T13:30:13;12.30;99.90
11087;DHT22;5597;47.588;9.642;2023-11-21T13:32:44;12.30;99.90
11087;DHT22;5597;47.588;9.642;2023-11-21T13:35:11;12.30;99.90
11087;DHT22;5597;47.588;9.642;2023-11-21T13:37:41;12.30;99.90
11087;DHT22;5597;47.588;9.642;2023-11-21T13:40:08;12.30;99.90
11087;DHT22;5597;47.588;9.642;2023-11-21T13:42:40;12.30;99.90
11087;DHT22;5597;47.588;9.642;2023-11-21T13:45:07;12.30;99.90
11087;DHT22;5597;47.588;9.642;2023-11-21T13:47:32;12.20;99.90
11087;DHT22;5597;47.588;9.642;2023-11-21T13:49:59;12.10;99.90
11087;DHT22;5597;47.588;9.642;2023-11-21T13:52:26;12.10;99.90
11087;DHT22;5597;47.588;9.642;2023-11-21T13:54:53;11.90;99.90
11087;DHT22;5597;47.588;9.642;2023-11-21T13:57:19;11.90;99.90
11087;DHT22;5597;47.588;9.642;2023-11-21T13:59:46;11.70;99.90
11087;DHT22;5597;47.588;9.642;2023-11-21T14:02:11;11.60;99.90
11087;DHT22;5597;47.588;9.642;2023-11-21T14:04:44;11.40;99.90
11087;DHT22;5597;47.588;9.642;2023-11-21T14:07:26;11.40;99.90
11087;DHT22;5597;47.588;9.642;2023-11-21T14:10:11;11.20;99.90
11087;DHT22;5597;47.588;9.642;2023-11-21T14:12:39;11.20;99.90
11087;DHT22;5597;47.588;9.642;2023-11-21T14:15:08;11.10;99.90
11087;DHT22;5597;47.588;9.642;2023-11-21T14:17:35;11.10;99.90
11087;DHT22;5597;47.588;9.642;2023-11-21T14:20:03;10.90;99.90
11087;DHT22;5597;47.588;9.642;2023-11-21T14:22:30;10.80;99.90
11087;DHT22;5597;47.588;9.642;2023-11-21T14:24:56;10.80;99.90
11087;DHT22;5597;47.588;9.642;2023-11-21T14:27:25;10.80;99.90
11087;DHT22;5597;47.588;9.642;2023-11-21T14:29:50;10.70;99.90
11087;DHT22;5597;47.588;9.642;2023-11-21T14:32:17;10.70;99.90
11087;DHT22;5597;47.588;9.642;2023-11-21T14:34:43;10.70;99.90
11087;DHT22;5597;47.588;9.642;2023-11-21T14:37:12;10.70;99.90
11087;DHT22;5597;47.588;9.642;2023-11-21T14:39:39;10.70;99.90
11087;DHT22;5597;47.588;9.642;2023-11-21T14:42:09;10.70;99.90
11087;DHT22;5597;47.588;9.642;2023-11-21T14:44:35;10.70;99.90
11087;DHT22;5597;47.588;9.642;2023-11-21T14:47:05;10.70;99.90
11087;DHT22;5597;47.588;9.642;2023-11-21T14:49:38;10.70;99.90
11087;DHT22;5597;47.588;9.642;2023-11-21T14:52:20;10.70;99.90
11087;DHT22;5597;47.588;9.642;2023-11-21T14:55:08;10.70;99.90
11087;DHT22;5597;47.588;9.642;2023-11-21T14:57:52;10.60;99.90
11087;DHT22;5597;47.588;9.642;2023-11-21T15:00:20;10.60;99.90
11087;DHT22;5597;47.588;9.642;2023-11-21T15:03:10;10.60;99.90
11087;DHT22;5597;47.588;9.642;2023-11-21T15:05:36;10.60;99.90
11087;DHT22;5597;47.588;9.642;2023-11-21T15:08:04;10.50;99.90
11087;DHT22;5597;47.588;9.642;2023-11-21T15:10:48;10.50;99.90
11087;DHT22;5597;47.588;9.642;2023-11-21T15:13:19;10.40;99.90
11087;DHT22;5597;47.588;9.642;2023-11-21T15:15:44;10.30;99.90
11087;DHT22;5597;47.588;9.642;2023-11-21T15:18:10;10.20;99.90
11087;DHT22;5597;47.588;9.642;2023-11-21T15:20:42;10.20;99.90
11087;DHT22;5597;47.588;9.642;2023-11-21T15:23:09;10.10;99.90
11087;DHT22;5597;47.588;9.642;2023-11-21T15:25:34;10.00;99.90
11087;DHT22;5597;47.588;9.642;2023-11-21T15:28:01;9.90;99.90
11087;DHT22;5597;47.588;9.642;2023-11-21T15:30:28;9.80;99.90
11087;DHT22;5597;47.588;9.642;2023-11-21T15:32:59;9.80;99.90
11087;DHT22;5597;47.588;9.642;2023-11-21T15:35:25;9.70;99.90
11087;DHT22;5597;47.588;9.642;2023-11-21T15:37:53;9.60;99.90
11087;DHT22;5597;47.588;9.642;2023-11-21T15:40:19;9.60;99.90
11087;DHT22;5597;47.588;9.642;2023-11-21T15:42:45;9.60;99.90
11087;DHT22;5597;47.588;9.642;2023-11-21T15:45:11;9.60;99.90
11087;DHT22;5597;47.588;9.642;2023-11-21T15:47:36;9.50;99.90
11087;DHT22;5597;47.588;9.642;2023-11-21T15:50:03;9.50;99.90
11087;DHT22;5597;47.588;9.642;2023-11-21T15:52:29;9.40;99.90
11087;DHT22;5597;47.588;9.642;2023-11-21T15:54:55;9.40;99.90
11087;DHT22;5597;47.588;9.642;2023-11-21T15:57:21;9.30;99.90
11087;DHT22;5597;47.588;9.642;2023-11-21T15:59:47;9.30;99.90
11087;DHT22;5597;47.588;9.642;2023-11-21T16:02:13;9.20;99.90
11087;DHT22;5597;47.588;9.642;2023-11-21T16:04:41;9.20;99.90
11087;DHT22;5597;47.588;9.642;2023-11-21T16:07:08;9.20;99.90
11087;DHT22;5597;47.588;9.642;2023-11-21T16:09:34;9.10;99.90
11087;DHT22;5597;47.588;9.642;2023-11-21T16:12:01;9.10;99.90
11087;DHT22;5597;47.588;9.642;2023-11-21T16:14:29;9.00;99.90
11087;DHT22;5597;47.588;9.642;2023-11-21T16:17:01;8.90;99.90
11087;DHT22;5597;47.588;9.642;2023-11-21T16:19:27;8.80;99.90
11087;DHT22;5597;47.588;9.642;2023-11-21T16:21:53;8.70;99.90
11087;DHT22;5597;47.588;9.642;2023-11-21T16:24:19;8.70;99.90
11087;DHT22;5597;47.588;9.642;2023-11-21T16:26:45;8.70;99.90
11087;DHT22;5597;47.588;9.642;2023-11-21T16:29:11;8.70;99.90
11087;DHT22;5597;47.588;9.642;2023-11-21T16:31:38;8.60;99.90
11087;DHT22;5597;47.588;9.642;2023-11-21T16:34:12;8.50;99.90
11087;DHT22;5597;47.588;9.642;2023-11-21T16:36:41;8.50;99.90
11087;DHT22;5597;47.588;9.642;2023-11-21T16:39:08;8.50;99.90
11087;DHT22;5597;47.588;9.642;2023-11-21T16:41:35;8.40;99.90
11087;DHT22;5597;47.588;9.642;2023-11-21T16:44:00;8.50;99.90
11087;DHT22;5597;47.588;9.642;2023-11-21T16:46:26;8.40;99.90
11087;DHT22;5597;47.588;9.642;2023-11-21T16:48:52;8.40;99.90
11087;DHT22;5597;47.588;9.642;2023-11-21T16:51:18;8.40;99.90
11087;DHT22;5597;47.588;9.642;2023-11-21T16:53:44;8.30;99.90
11087;DHT22;5597;47.588;9.642;2023-11-21T16:56:10;8.30;99.90
11087;DHT22;5597;47.588;9.642;2023-11-21T16:58:36;8.30;99.90